VIV147 KLAX-MMMX
Flight info
| Callsign | VIV147 |
|---|---|
| Flight time | N/A |
| Altitude | 37000 |
| Route | PNDAH2 TCATE DCT PPE UJ7 HMO UT18 NABAS UT49 DGO UJ5 ZCL UT130 DARAN DARAN3A |
| Aircraft | A320/M-SDE3FGHIRWY/LB1 |
Departure
| Time | 2026-04-21 19:24 |
|---|---|
| Airport | Los Angeles International Airport (KLAX) |
Arrival
| Time | N/A |
|---|---|
| Airport | Mexico City Benito Juárez International Airport (MMMX) |
| Time | Latitude | Longitude | Altitude | Speed | Heading |
|---|---|---|---|---|---|
| 2026-04-21 18:51 | 33.94177 | -118.41100 | 126 ft | 0 kts | 82° |
| 2026-04-21 19:11 | 33.94176 | -118.41112 | 126 ft | 2 kts | 82° |
| 2026-04-21 19:11 | 33.94174 | -118.41131 | 125 ft | 2 kts | 82° |
| 2026-04-21 19:12 | 33.94171 | -118.41151 | 122 ft | 2 kts | 82° |
| 2026-04-21 19:12 | 33.94169 | -118.41170 | 121 ft | 2 kts | 82° |
| 2026-04-21 19:12 | 33.94167 | -118.41190 | 124 ft | 2 kts | 84° |
| 2026-04-21 19:12 | 33.94170 | -118.41208 | 121 ft | 2 kts | 165° |
| 2026-04-21 19:13 | 33.94171 | -118.41209 | 121 ft | 0 kts | 165° |
| 2026-04-21 19:13 | 33.94178 | -118.41206 | 122 ft | 0 kts | 349° |
| 2026-04-21 19:15 | 33.94198 | -118.41211 | 122 ft | 7 kts | 349° |
| 2026-04-21 19:16 | 33.94246 | -118.41234 | 121 ft | 8 kts | 314° |
| 2026-04-21 19:16 | 33.94283 | -118.41285 | 124 ft | 9 kts | 345° |
| 2026-04-21 19:16 | 33.94349 | -118.41277 | 124 ft | 10 kts | 7° |
| 2026-04-21 19:16 | 33.94426 | -118.41266 | 123 ft | 12 kts | 5° |
| 2026-04-21 19:17 | 33.94614 | -118.41272 | 121 ft | 15 kts | 354° |
| 2026-04-21 19:17 | 33.94706 | -118.41229 | 122 ft | 16 kts | 63° |
| 2026-04-21 19:17 | 33.94732 | -118.41090 | 123 ft | 18 kts | 83° |
| 2026-04-21 19:18 | 33.94748 | -118.40935 | 122 ft | 19 kts | 83° |
| 2026-04-21 19:18 | 33.94765 | -118.40767 | 124 ft | 21 kts | 82° |
| 2026-04-21 19:18 | 33.94784 | -118.40586 | 125 ft | 22 kts | 83° |
| 2026-04-21 19:18 | 33.94802 | -118.40417 | 124 ft | 20 kts | 83° |
| 2026-04-21 19:19 | 33.94834 | -118.40298 | 123 ft | 10 kts | 26° |
| 2026-04-21 19:19 | 33.94894 | -118.40275 | 122 ft | 9 kts | 51° |
| 2026-04-21 19:19 | 33.94907 | -118.40208 | 122 ft | 7 kts | 72° |
| 2026-04-21 19:19 | 33.94926 | -118.40179 | 124 ft | 0 kts | 40° |
| 2026-04-21 19:21 | 33.94928 | -118.40177 | 124 ft | 2 kts | 34° |
| 2026-04-21 19:21 | 33.94987 | -118.40183 | 124 ft | 14 kts | 335° |
| 2026-04-21 19:22 | 33.95007 | -118.40300 | 125 ft | 15 kts | 263° |
| 2026-04-21 19:22 | 33.95005 | -118.40325 | 122 ft | 0 kts | 263° |
| 2026-04-21 19:23 | 33.95002 | -118.40352 | 125 ft | 11 kts | 262° |
| 2026-04-21 19:23 | 33.94968 | -118.40669 | 126 ft | 71 kts | 263° |
| 2026-04-21 19:23 | 33.94883 | -118.41500 | 126 ft | 126 kts | 263° |
| 2026-04-21 19:23 | 33.94757 | -118.42727 | 128 ft | 167 kts | 263° |
| 2026-04-21 19:24 | 33.94616 | -118.44124 | 657 ft | 166 kts | 262° |
| 2026-04-21 19:24 | 33.94478 | -118.45499 | 1287 ft | 166 kts | 259° |
| 2026-04-21 19:24 | 33.94347 | -118.46938 | 1608 ft | 184 kts | 261° |
| 2026-04-21 19:24 | 33.94267 | -118.48571 | 1817 ft | 208 kts | 264° |
| 2026-04-21 19:25 | 33.94207 | -118.50416 | 2092 ft | 233 kts | 264° |
| 2026-04-21 19:25 | 33.94103 | -118.52455 | 2561 ft | 253 kts | 263° |
| 2026-04-21 19:25 | 33.93950 | -118.54582 | 3389 ft | 257 kts | 262° |
| 2026-04-21 19:25 | 33.93779 | -118.56735 | 4282 ft | 258 kts | 262° |
| 2026-04-21 19:26 | 33.93607 | -118.58872 | 5284 ft | 255 kts | 262° |
| 2026-04-21 19:26 | 33.93288 | -118.60952 | 6230 ft | 252 kts | 247° |
| 2026-04-21 19:26 | 33.92342 | -118.62702 | 7073 ft | 252 kts | 224° |
| 2026-04-21 19:26 | 33.90858 | -118.63837 | 7896 ft | 257 kts | 201° |
| 2026-04-21 19:27 | 33.89073 | -118.64131 | 8692 ft | 265 kts | 181° |
| 2026-04-21 19:27 | 33.87225 | -118.63993 | 9532 ft | 267 kts | 180° |
| 2026-04-21 19:27 | 33.85369 | -118.63818 | 10296 ft | 270 kts | 175° |
| 2026-04-21 19:27 | 33.83534 | -118.63180 | 10962 ft | 282 kts | 162° |
| 2026-04-21 19:28 | 33.81757 | -118.61930 | 11136 ft | 311 kts | 152° |
| 2026-04-21 19:28 | 33.79898 | -118.60420 | 11253 ft | 334 kts | 152° |
| 2026-04-21 19:28 | 33.77932 | -118.58814 | 11625 ft | 347 kts | 152° |
| 2026-04-21 19:28 | 33.75917 | -118.57162 | 12243 ft | 353 kts | 152° |
| 2026-04-21 19:29 | 33.73876 | -118.55493 | 12858 ft | 357 kts | 153° |
| 2026-04-21 19:29 | 33.71812 | -118.53790 | 13450 ft | 364 kts | 151° |
| 2026-04-21 19:29 | 33.69915 | -118.51684 | 14021 ft | 380 kts | 139° |
| 2026-04-21 19:29 | 33.68380 | -118.49024 | 14553 ft | 396 kts | 126° |
| 2026-04-21 19:30 | 33.67114 | -118.46058 | 15107 ft | 401 kts | 124° |
| 2026-04-21 19:30 | 33.65844 | -118.43067 | 15651 ft | 404 kts | 124° |
| 2026-04-21 19:30 | 33.64561 | -118.40051 | 16187 ft | 407 kts | 124° |
| 2026-04-21 19:30 | 33.63266 | -118.37009 | 16726 ft | 411 kts | 124° |
| 2026-04-21 19:31 | 33.61961 | -118.33947 | 17269 ft | 414 kts | 124° |
| 2026-04-21 19:31 | 33.60647 | -118.30866 | 17842 ft | 417 kts | 124° |
| 2026-04-21 19:31 | 33.59322 | -118.27752 | 18435 ft | 420 kts | 124° |
| 2026-04-21 19:31 | 33.57988 | -118.24619 | 18997 ft | 423 kts | 124° |
| 2026-04-21 19:32 | 33.56645 | -118.21464 | 19578 ft | 426 kts | 124° |
| 2026-04-21 19:32 | 33.55290 | -118.18290 | 20150 ft | 429 kts | 124° |
| 2026-04-21 19:32 | 33.53925 | -118.15094 | 20655 ft | 432 kts | 124° |
| 2026-04-21 19:32 | 33.52549 | -118.11881 | 21126 ft | 435 kts | 124° |
| 2026-04-21 19:33 | 33.51633 | -118.09742 | 21434 ft | 437 kts | 124° |
| 2026-04-21 19:33 | 33.49767 | -118.05391 | 22026 ft | 441 kts | 125° |
| 2026-04-21 19:33 | 33.48357 | -118.02115 | 22450 ft | 444 kts | 125° |
| 2026-04-21 19:33 | 33.46940 | -117.98823 | 22866 ft | 447 kts | 125° |
| 2026-04-21 19:34 | 33.45511 | -117.95502 | 23273 ft | 450 kts | 125° |
| 2026-04-21 19:34 | 33.44075 | -117.92166 | 23672 ft | 453 kts | 125° |
| 2026-04-21 19:34 | 33.42629 | -117.88809 | 23998 ft | 455 kts | 125° |
| 2026-04-21 19:34 | 33.41171 | -117.85432 | 24328 ft | 458 kts | 125° |
| 2026-04-21 19:35 | 33.39704 | -117.82042 | 24651 ft | 460 kts | 125° |
| 2026-04-21 19:35 | 33.36745 | -117.75210 | 25281 ft | 465 kts | 125° |
| 2026-04-21 19:35 | 33.35254 | -117.71773 | 25600 ft | 467 kts | 125° |
| 2026-04-21 19:36 | 33.33753 | -117.68317 | 25911 ft | 469 kts | 125° |
| 2026-04-21 19:36 | 33.32247 | -117.64849 | 26219 ft | 472 kts | 125° |
| 2026-04-21 19:36 | 33.31247 | -117.62542 | 26422 ft | 473 kts | 125° |
| 2026-04-21 19:36 | 33.29728 | -117.59038 | 26729 ft | 476 kts | 125° |
| 2026-04-21 19:37 | 33.28202 | -117.55520 | 27032 ft | 478 kts | 125° |
| 2026-04-21 19:37 | 33.26665 | -117.51984 | 27336 ft | 480 kts | 125° |
| 2026-04-21 19:37 | 33.25118 | -117.48440 | 27639 ft | 483 kts | 125° |
| 2026-04-21 19:37 | 33.23561 | -117.44883 | 27992 ft | 483 kts | 125° |
| 2026-04-21 19:38 | 33.22005 | -117.41328 | 28424 ft | 482 kts | 125° |
| 2026-04-21 19:38 | 33.20450 | -117.37783 | 28844 ft | 482 kts | 125° |
| 2026-04-21 19:38 | 33.18899 | -117.34244 | 29271 ft | 482 kts | 125° |
| 2026-04-21 19:38 | 33.17346 | -117.30696 | 29700 ft | 481 kts | 125° |
| 2026-04-21 19:39 | 33.15797 | -117.27158 | 30127 ft | 481 kts | 125° |
| 2026-04-21 19:39 | 33.14245 | -117.23620 | 30495 ft | 481 kts | 125° |
| 2026-04-21 19:39 | 33.12693 | -117.20090 | 30830 ft | 481 kts | 125° |
| 2026-04-21 19:39 | 33.11134 | -117.16552 | 31159 ft | 482 kts | 125° |
| 2026-04-21 19:40 | 33.09573 | -117.13011 | 31481 ft | 482 kts | 125° |
| 2026-04-21 19:40 | 33.08011 | -117.09468 | 31810 ft | 483 kts | 125° |
| 2026-04-21 19:40 | 33.06449 | -117.05918 | 32147 ft | 484 kts | 125° |
| 2026-04-21 19:40 | 33.04887 | -117.02373 | 32492 ft | 484 kts | 125° |
| 2026-04-21 19:41 | 33.03316 | -116.98821 | 32842 ft | 484 kts | 125° |
| 2026-04-21 19:41 | 33.01740 | -116.95270 | 33192 ft | 485 kts | 125° |
| 2026-04-21 19:41 | 33.00163 | -116.91722 | 33527 ft | 485 kts | 125° |
| 2026-04-21 19:41 | 32.98586 | -116.88170 | 33875 ft | 485 kts | 125° |
| 2026-04-21 19:42 | 32.97007 | -116.84611 | 34205 ft | 486 kts | 125° |
| 2026-04-21 19:42 | 32.95432 | -116.81060 | 34499 ft | 486 kts | 124° |
| 2026-04-21 19:42 | 32.93852 | -116.77502 | 34804 ft | 485 kts | 124° |
| 2026-04-21 19:42 | 32.92274 | -116.73956 | 35053 ft | 485 kts | 124° |
| 2026-04-21 19:43 | 32.90691 | -116.70409 | 35115 ft | 488 kts | 124° |
| 2026-04-21 19:43 | 32.87461 | -116.63206 | 35116 ft | 497 kts | 124° |
| 2026-04-21 19:44 | 32.84204 | -116.55948 | 35105 ft | 498 kts | 124° |
| 2026-04-21 19:44 | 32.80948 | -116.48666 | 35101 ft | 499 kts | 124° |
| 2026-04-21 19:45 | 32.77732 | -116.41350 | 35098 ft | 500 kts | 123° |
| 2026-04-21 19:45 | 32.74581 | -116.34035 | 35098 ft | 501 kts | 123° |
| 2026-04-21 19:46 | 32.71402 | -116.26676 | 35100 ft | 501 kts | 123° |
| 2026-04-21 19:46 | 32.68200 | -116.19328 | 35094 ft | 501 kts | 123° |
| 2026-04-21 19:47 | 32.64986 | -116.11990 | 35093 ft | 501 kts | 123° |
| 2026-04-21 19:47 | 32.61765 | -116.04650 | 35082 ft | 501 kts | 123° |
| 2026-04-21 19:48 | 32.58548 | -115.97314 | 35073 ft | 501 kts | 123° |
| 2026-04-21 19:48 | 32.55320 | -115.89984 | 35063 ft | 502 kts | 123° |
| 2026-04-21 19:49 | 32.52085 | -115.82658 | 35054 ft | 501 kts | 123° |
| 2026-04-21 19:49 | 32.48856 | -115.75342 | 35050 ft | 501 kts | 123° |
| 2026-04-21 19:50 | 32.46153 | -115.69213 | 35050 ft | 501 kts | 123° |
| 2026-04-21 19:50 | 32.42390 | -115.60739 | 35038 ft | 500 kts | 123° |
| 2026-04-21 19:51 | 32.39144 | -115.53449 | 35028 ft | 500 kts | 123° |
| 2026-04-21 19:51 | 32.35903 | -115.46173 | 35026 ft | 500 kts | 122° |
| 2026-04-21 19:52 | 32.32659 | -115.38899 | 35017 ft | 500 kts | 122° |
| 2026-04-21 19:52 | 32.29416 | -115.31628 | 35016 ft | 500 kts | 122° |
| 2026-04-21 19:53 | 32.26166 | -115.24361 | 35013 ft | 500 kts | 122° |
| 2026-04-21 19:53 | 32.22902 | -115.17109 | 35018 ft | 500 kts | 122° |
| 2026-04-21 19:54 | 32.19635 | -115.09857 | 35015 ft | 500 kts | 122° |
| 2026-04-21 19:54 | 32.16366 | -115.02611 | 35011 ft | 500 kts | 122° |
| 2026-04-21 19:55 | 32.13094 | -114.95355 | 35012 ft | 500 kts | 122° |
| 2026-04-21 19:55 | 32.09820 | -114.88110 | 35013 ft | 500 kts | 122° |
| 2026-04-21 19:56 | 32.06537 | -114.80882 | 35014 ft | 500 kts | 122° |
| 2026-04-21 19:56 | 32.03253 | -114.73645 | 35017 ft | 500 kts | 122° |
| 2026-04-21 19:57 | 31.99968 | -114.66416 | 35015 ft | 500 kts | 122° |
| 2026-04-21 19:57 | 31.96674 | -114.59195 | 35016 ft | 500 kts | 122° |
| 2026-04-21 19:58 | 31.93376 | -114.51981 | 35019 ft | 500 kts | 122° |
| 2026-04-21 19:58 | 31.90074 | -114.44783 | 35021 ft | 500 kts | 122° |
| 2026-04-21 19:59 | 31.86772 | -114.37583 | 35021 ft | 499 kts | 122° |
| 2026-04-21 19:59 | 31.82792 | -114.31097 | 35022 ft | 490 kts | 136° |
| 2026-04-21 20:00 | 31.78254 | -114.25115 | 35021 ft | 490 kts | 136° |
| 2026-04-21 20:00 | 31.73705 | -114.19147 | 35018 ft | 490 kts | 136° |
| 2026-04-21 20:01 | 31.69152 | -114.13182 | 35015 ft | 490 kts | 136° |
| 2026-04-21 20:01 | 31.64606 | -114.07212 | 35020 ft | 491 kts | 136° |
| 2026-04-21 20:02 | 31.60056 | -114.01241 | 35016 ft | 491 kts | 136° |
| 2026-04-21 20:02 | 31.55492 | -113.95279 | 35020 ft | 491 kts | 136° |
| 2026-04-21 20:03 | 31.50917 | -113.89326 | 35028 ft | 491 kts | 136° |
| 2026-04-21 20:03 | 31.46343 | -113.83376 | 35022 ft | 492 kts | 136° |
| 2026-04-21 20:04 | 31.41771 | -113.77419 | 35022 ft | 492 kts | 136° |
| 2026-04-21 20:04 | 31.37193 | -113.71459 | 35017 ft | 492 kts | 135° |
| 2026-04-21 20:05 | 31.32605 | -113.65503 | 35022 ft | 493 kts | 135° |
| 2026-04-21 20:05 | 31.28013 | -113.59555 | 35021 ft | 493 kts | 136° |
| 2026-04-21 20:06 | 31.23407 | -113.53611 | 35020 ft | 493 kts | 135° |
| 2026-04-21 20:06 | 31.18795 | -113.47672 | 35021 ft | 493 kts | 135° |
| 2026-04-21 20:07 | 31.14192 | -113.41726 | 35024 ft | 494 kts | 135° |
| 2026-04-21 20:07 | 31.09599 | -113.35770 | 35026 ft | 494 kts | 135° |
| 2026-04-21 20:08 | 31.05000 | -113.29828 | 35025 ft | 493 kts | 135° |
| 2026-04-21 20:08 | 31.00393 | -113.23889 | 35027 ft | 493 kts | 135° |
| 2026-04-21 20:09 | 30.95785 | -113.17963 | 35022 ft | 493 kts | 135° |
| 2026-04-21 20:09 | 30.91182 | -113.12046 | 35023 ft | 493 kts | 135° |
| 2026-04-21 20:10 | 30.86597 | -113.06162 | 35021 ft | 493 kts | 135° |
| 2026-04-21 20:10 | 30.81985 | -113.00254 | 35021 ft | 493 kts | 135° |
| 2026-04-21 20:11 | 30.77366 | -112.94345 | 35019 ft | 493 kts | 135° |
| 2026-04-21 20:11 | 30.72743 | -112.88452 | 35019 ft | 494 kts | 135° |
| 2026-04-21 20:12 | 30.68115 | -112.82549 | 35015 ft | 494 kts | 135° |
| 2026-04-21 20:12 | 30.64269 | -112.77651 | 35012 ft | 494 kts | 135° |
| 2026-04-21 20:13 | 30.58859 | -112.70766 | 35014 ft | 494 kts | 135° |
| 2026-04-21 20:13 | 30.54218 | -112.64878 | 35012 ft | 494 kts | 135° |
| 2026-04-21 20:14 | 30.49578 | -112.58996 | 35011 ft | 494 kts | 135° |
| 2026-04-21 20:14 | 30.44930 | -112.53113 | 35007 ft | 495 kts | 134° |
| 2026-04-21 20:15 | 30.40279 | -112.47237 | 35007 ft | 495 kts | 135° |
| 2026-04-21 20:15 | 30.35651 | -112.41404 | 35002 ft | 495 kts | 135° |
| 2026-04-21 20:16 | 30.30988 | -112.35537 | 35002 ft | 495 kts | 135° |
| 2026-04-21 20:16 | 30.26321 | -112.29673 | 35004 ft | 495 kts | 135° |
| 2026-04-21 20:17 | 30.21657 | -112.23812 | 35001 ft | 495 kts | 135° |
| 2026-04-21 20:17 | 30.16983 | -112.17949 | 35006 ft | 496 kts | 134° |
| 2026-04-21 20:18 | 30.13097 | -112.13083 | 35003 ft | 496 kts | 135° |
| 2026-04-21 20:18 | 30.07626 | -112.06246 | 35005 ft | 496 kts | 135° |
| 2026-04-21 20:19 | 30.02941 | -112.00395 | 35008 ft | 496 kts | 135° |
| 2026-04-21 20:19 | 29.98250 | -111.94551 | 35008 ft | 496 kts | 135° |
| 2026-04-21 20:20 | 29.93547 | -111.88709 | 35005 ft | 497 kts | 135° |
| 2026-04-21 20:20 | 29.88848 | -111.82872 | 35010 ft | 497 kts | 135° |
| 2026-04-21 20:21 | 29.83937 | -111.77294 | 35009 ft | 494 kts | 142° |
| 2026-04-21 20:21 | 29.78695 | -111.72171 | 35007 ft | 495 kts | 142° |
| 2026-04-21 20:22 | 29.73442 | -111.67047 | 35007 ft | 495 kts | 142° |
| 2026-04-21 20:22 | 29.65603 | -111.59391 | 35008 ft | 495 kts | 142° |
| 2026-04-21 20:23 | 29.60344 | -111.54273 | 35004 ft | 495 kts | 142° |
| 2026-04-21 20:23 | 29.55085 | -111.49161 | 35003 ft | 495 kts | 142° |
| 2026-04-21 20:24 | 29.49827 | -111.44042 | 35000 ft | 495 kts | 142° |
| 2026-04-21 20:24 | 29.45420 | -111.39771 | 34993 ft | 495 kts | 142° |
| 2026-04-21 20:25 | 29.40153 | -111.34674 | 34989 ft | 495 kts | 143° |
| 2026-04-21 20:25 | 29.34914 | -111.29617 | 35000 ft | 496 kts | 143° |
| 2026-04-21 20:26 | 29.29636 | -111.24529 | 35020 ft | 496 kts | 143° |
| 2026-04-21 20:26 | 29.24356 | -111.19439 | 35040 ft | 496 kts | 143° |
| 2026-04-21 20:27 | 29.19080 | -111.14359 | 35058 ft | 496 kts | 143° |
| 2026-04-21 20:27 | 29.13795 | -111.09286 | 35067 ft | 496 kts | 143° |
| 2026-04-21 20:28 | 29.08598 | -111.04090 | 35064 ft | 498 kts | 136° |
| 2026-04-21 20:28 | 29.03814 | -110.98354 | 35066 ft | 498 kts | 136° |
| 2026-04-21 20:29 | 28.99012 | -110.92646 | 35053 ft | 498 kts | 136° |
| 2026-04-21 20:29 | 28.94199 | -110.86948 | 35038 ft | 498 kts | 136° |
| 2026-04-21 20:30 | 28.89392 | -110.81256 | 35017 ft | 498 kts | 136° |
| 2026-04-21 20:30 | 28.84591 | -110.75563 | 35004 ft | 498 kts | 136° |
| 2026-04-21 20:31 | 28.79793 | -110.69882 | 35004 ft | 497 kts | 136° |
| 2026-04-21 20:31 | 28.74987 | -110.64211 | 35004 ft | 497 kts | 136° |
| 2026-04-21 20:32 | 28.70174 | -110.58567 | 35004 ft | 496 kts | 137° |
| 2026-04-21 20:32 | 28.65345 | -110.52952 | 35003 ft | 496 kts | 137° |
| 2026-04-21 20:33 | 28.60504 | -110.47353 | 35004 ft | 496 kts | 137° |
| 2026-04-21 20:33 | 28.55702 | -110.41789 | 35008 ft | 496 kts | 137° |
| 2026-04-21 20:34 | 28.50871 | -110.36190 | 35005 ft | 496 kts | 137° |
| 2026-04-21 20:34 | 28.46035 | -110.30604 | 35005 ft | 496 kts | 137° |
| 2026-04-21 20:35 | 28.41196 | -110.25015 | 35002 ft | 496 kts | 137° |
| 2026-04-21 20:35 | 28.36364 | -110.19429 | 35006 ft | 496 kts | 137° |
| 2026-04-21 20:36 | 28.31527 | -110.13851 | 35007 ft | 496 kts | 138° |
| 2026-04-21 20:36 | 28.26683 | -110.08285 | 35000 ft | 495 kts | 138° |
| 2026-04-21 20:37 | 28.21838 | -110.02723 | 35002 ft | 496 kts | 138° |
| 2026-04-21 20:37 | 28.16995 | -109.97167 | 35009 ft | 496 kts | 138° |
| 2026-04-21 20:38 | 28.12173 | -109.91572 | 35018 ft | 496 kts | 137° |
| 2026-04-21 20:38 | 28.07390 | -109.85932 | 35017 ft | 496 kts | 137° |
| 2026-04-21 20:39 | 28.02609 | -109.80304 | 35017 ft | 496 kts | 137° |
| 2026-04-21 20:39 | 27.97818 | -109.74693 | 35018 ft | 496 kts | 137° |
| 2026-04-21 20:40 | 27.93017 | -109.69100 | 35025 ft | 495 kts | 138° |
| 2026-04-21 20:40 | 27.88216 | -109.63513 | 35021 ft | 495 kts | 138° |
| 2026-04-21 20:41 | 27.83414 | -109.57925 | 35027 ft | 495 kts | 138° |
| 2026-04-21 20:41 | 27.78617 | -109.52344 | 35031 ft | 495 kts | 138° |
| 2026-04-21 20:42 | 27.73817 | -109.46774 | 35036 ft | 495 kts | 138° |
| 2026-04-21 20:42 | 27.69045 | -109.41253 | 35034 ft | 494 kts | 138° |
| 2026-04-21 20:43 | 27.64253 | -109.35695 | 35034 ft | 494 kts | 138° |
| 2026-04-21 20:43 | 27.59457 | -109.30140 | 35031 ft | 494 kts | 138° |
| 2026-04-21 20:44 | 27.54645 | -109.24617 | 35030 ft | 493 kts | 139° |
| 2026-04-21 20:44 | 27.49812 | -109.19127 | 35028 ft | 493 kts | 139° |
| 2026-04-21 20:45 | 27.44987 | -109.13641 | 35024 ft | 493 kts | 139° |
| 2026-04-21 20:45 | 27.40154 | -109.08158 | 35023 ft | 493 kts | 139° |
| 2026-04-21 20:46 | 27.35325 | -109.02682 | 35023 ft | 493 kts | 139° |
| 2026-04-21 20:46 | 27.30499 | -108.97214 | 35028 ft | 493 kts | 139° |
| 2026-04-21 20:47 | 27.25674 | -108.91742 | 35030 ft | 493 kts | 139° |
| 2026-04-21 20:47 | 27.20845 | -108.86276 | 35033 ft | 493 kts | 139° |
| 2026-04-21 20:48 | 27.16012 | -108.80822 | 35035 ft | 493 kts | 140° |
| 2026-04-21 20:48 | 27.11174 | -108.75376 | 35036 ft | 493 kts | 140° |
| 2026-04-21 20:49 | 27.06333 | -108.69928 | 35034 ft | 492 kts | 140° |
| 2026-04-21 20:49 | 27.01496 | -108.64489 | 35035 ft | 493 kts | 140° |
| 2026-04-21 20:50 | 26.96686 | -108.59085 | 35033 ft | 493 kts | 140° |
| 2026-04-21 20:50 | 26.91809 | -108.53619 | 35030 ft | 492 kts | 140° |
| 2026-04-21 20:51 | 26.86964 | -108.48196 | 35022 ft | 492 kts | 140° |
| 2026-04-21 20:51 | 26.82151 | -108.42817 | 35029 ft | 492 kts | 140° |
| 2026-04-21 20:52 | 26.77301 | -108.37400 | 35020 ft | 492 kts | 140° |
| 2026-04-21 20:52 | 26.72453 | -108.31981 | 35020 ft | 492 kts | 140° |
| 2026-04-21 20:53 | 26.67608 | -108.26574 | 35030 ft | 493 kts | 140° |
| 2026-04-21 20:53 | 26.62753 | -108.21167 | 35032 ft | 492 kts | 140° |
| 2026-04-21 20:54 | 26.58041 | -108.15592 | 35026 ft | 498 kts | 131° |
| 2026-04-21 20:54 | 26.53995 | -108.09292 | 35024 ft | 499 kts | 130° |
| 2026-04-21 20:55 | 26.49956 | -108.02984 | 35044 ft | 499 kts | 130° |
| 2026-04-21 20:55 | 26.45920 | -107.96687 | 35036 ft | 499 kts | 130° |
| 2026-04-21 20:56 | 26.41876 | -107.90395 | 35052 ft | 499 kts | 130° |
| 2026-04-21 20:56 | 26.37821 | -107.84106 | 35047 ft | 499 kts | 130° |
| 2026-04-21 20:57 | 26.33760 | -107.77828 | 35055 ft | 499 kts | 130° |
| 2026-04-21 20:57 | 26.29706 | -107.71557 | 35058 ft | 499 kts | 130° |
| 2026-04-21 20:58 | 26.25652 | -107.65284 | 35058 ft | 499 kts | 130° |
| 2026-04-21 20:58 | 26.21597 | -107.59010 | 35050 ft | 499 kts | 130° |
| 2026-04-21 20:59 | 26.17533 | -107.52737 | 35051 ft | 499 kts | 131° |
| 2026-04-21 20:59 | 26.13465 | -107.46477 | 35064 ft | 499 kts | 131° |
| 2026-04-21 21:00 | 26.09402 | -107.40220 | 35068 ft | 499 kts | 131° |
| 2026-04-21 21:00 | 26.05341 | -107.33968 | 35070 ft | 498 kts | 131° |
| 2026-04-21 21:01 | 26.01279 | -107.27724 | 35072 ft | 498 kts | 131° |
| 2026-04-21 21:01 | 25.97237 | -107.21540 | 35073 ft | 498 kts | 131° |
| 2026-04-21 21:02 | 25.93164 | -107.15317 | 35085 ft | 498 kts | 131° |
| 2026-04-21 21:02 | 25.89091 | -107.09098 | 35102 ft | 498 kts | 131° |
| 2026-04-21 21:03 | 25.85007 | -107.02884 | 35111 ft | 497 kts | 131° |
| 2026-04-21 21:03 | 25.80950 | -106.96663 | 35114 ft | 497 kts | 131° |
| 2026-04-21 21:04 | 25.76899 | -106.90443 | 35117 ft | 498 kts | 131° |
| 2026-04-21 21:04 | 25.72841 | -106.84230 | 35116 ft | 497 kts | 131° |
| 2026-04-21 21:05 | 25.68769 | -106.78025 | 35114 ft | 497 kts | 131° |
| 2026-04-21 21:05 | 25.64700 | -106.71829 | 35108 ft | 498 kts | 131° |
| 2026-04-21 21:06 | 25.60625 | -106.65628 | 35102 ft | 498 kts | 132° |
| 2026-04-21 21:06 | 25.56536 | -106.59433 | 35102 ft | 498 kts | 132° |
| 2026-04-21 21:07 | 25.52452 | -106.53241 | 35096 ft | 498 kts | 132° |
| 2026-04-21 21:07 | 25.48371 | -106.47045 | 35099 ft | 498 kts | 132° |
| 2026-04-21 21:08 | 25.44282 | -106.40849 | 35103 ft | 498 kts | 132° |
| 2026-04-21 21:08 | 25.40177 | -106.34669 | 35109 ft | 498 kts | 133° |
| 2026-04-21 21:09 | 25.36053 | -106.28591 | 35110 ft | 497 kts | 133° |
| 2026-04-21 21:09 | 25.31879 | -106.22491 | 35106 ft | 498 kts | 133° |
| 2026-04-21 21:10 | 25.27712 | -106.16379 | 35111 ft | 498 kts | 133° |
| 2026-04-21 21:10 | 25.23559 | -106.10260 | 35106 ft | 498 kts | 133° |
| 2026-04-21 21:11 | 25.19403 | -106.04146 | 35102 ft | 498 kts | 133° |
| 2026-04-21 21:11 | 25.15233 | -105.98049 | 35096 ft | 497 kts | 133° |
| 2026-04-21 21:12 | 25.11068 | -105.91955 | 35096 ft | 497 kts | 133° |
| 2026-04-21 21:12 | 25.06900 | -105.85873 | 35089 ft | 497 kts | 133° |
| 2026-04-21 21:13 | 25.03433 | -105.80816 | 35090 ft | 497 kts | 133° |
| 2026-04-21 21:13 | 24.99270 | -105.74724 | 35079 ft | 497 kts | 133° |
| 2026-04-21 21:14 | 24.95105 | -105.68639 | 35071 ft | 497 kts | 133° |
| 2026-04-21 21:14 | 24.90936 | -105.62567 | 35067 ft | 497 kts | 133° |
| 2026-04-21 21:15 | 24.86765 | -105.56491 | 35063 ft | 497 kts | 133° |
| 2026-04-21 21:15 | 24.82590 | -105.50418 | 35050 ft | 498 kts | 133° |
| 2026-04-21 21:16 | 24.78398 | -105.44343 | 35045 ft | 498 kts | 133° |
| 2026-04-21 21:16 | 24.74210 | -105.38268 | 35042 ft | 498 kts | 133° |
| 2026-04-21 21:17 | 24.70024 | -105.32207 | 35052 ft | 497 kts | 133° |
| 2026-04-21 21:17 | 24.65844 | -105.26156 | 35053 ft | 497 kts | 133° |
| 2026-04-21 21:18 | 24.61654 | -105.20115 | 35039 ft | 497 kts | 133° |
| 2026-04-21 21:18 | 24.57461 | -105.14089 | 35045 ft | 497 kts | 133° |
| 2026-04-21 21:19 | 24.53274 | -105.08050 | 35038 ft | 496 kts | 133° |
| 2026-04-21 21:19 | 24.49084 | -105.02033 | 35025 ft | 496 kts | 133° |
| 2026-04-21 21:20 | 24.44886 | -104.96020 | 35017 ft | 496 kts | 133° |
| 2026-04-21 21:20 | 24.40684 | -104.90005 | 35011 ft | 496 kts | 133° |
| 2026-04-21 21:21 | 24.36518 | -104.84043 | 35011 ft | 496 kts | 133° |
| 2026-04-21 21:21 | 24.32322 | -104.78042 | 35054 ft | 495 kts | 133° |
| 2026-04-21 21:22 | 24.28121 | -104.72048 | 35120 ft | 496 kts | 133° |
| 2026-04-21 21:22 | 24.23927 | -104.66058 | 35185 ft | 496 kts | 133° |
| 2026-04-21 21:23 | 24.19722 | -104.60070 | 35258 ft | 495 kts | 133° |
| 2026-04-21 21:23 | 24.15516 | -104.54098 | 35266 ft | 495 kts | 133° |
| 2026-04-21 21:24 | 24.11332 | -104.48102 | 35266 ft | 496 kts | 133° |
| 2026-04-21 21:24 | 24.07248 | -104.42019 | 35241 ft | 496 kts | 131° |
| 2026-04-21 21:25 | 24.03192 | -104.35918 | 35165 ft | 495 kts | 132° |
| 2026-04-21 21:25 | 23.99108 | -104.29852 | 35088 ft | 495 kts | 132° |
| 2026-04-21 21:26 | 23.95005 | -104.23814 | 35016 ft | 494 kts | 132° |
| 2026-04-21 21:26 | 23.90908 | -104.17787 | 34974 ft | 494 kts | 132° |
| 2026-04-21 21:27 | 23.86817 | -104.11761 | 34979 ft | 493 kts | 132° |
| 2026-04-21 21:27 | 23.82738 | -104.05745 | 34991 ft | 493 kts | 132° |
| 2026-04-21 21:28 | 23.78658 | -103.99736 | 34996 ft | 492 kts | 132° |
| 2026-04-21 21:29 | 23.72533 | -103.90747 | 35005 ft | 491 kts | 132° |
| 2026-04-21 21:29 | 23.68450 | -103.84764 | 35011 ft | 491 kts | 132° |
| 2026-04-21 21:30 | 23.64379 | -103.78783 | 35024 ft | 491 kts | 132° |
| 2026-04-21 21:30 | 23.60324 | -103.72861 | 35019 ft | 490 kts | 132° |
| 2026-04-21 21:31 | 23.56236 | -103.66917 | 35012 ft | 490 kts | 132° |
| 2026-04-21 21:31 | 23.52153 | -103.60977 | 35020 ft | 490 kts | 132° |
| 2026-04-21 21:32 | 23.48076 | -103.55037 | 35014 ft | 489 kts | 132° |
| 2026-04-21 21:32 | 23.44002 | -103.49099 | 35018 ft | 489 kts | 132° |
| 2026-04-21 21:33 | 23.39926 | -103.43165 | 35011 ft | 489 kts | 132° |
| 2026-04-21 21:33 | 23.35852 | -103.37247 | 35004 ft | 489 kts | 132° |
| 2026-04-21 21:34 | 23.31769 | -103.31329 | 34999 ft | 489 kts | 132° |
| 2026-04-21 21:34 | 23.27687 | -103.25417 | 34998 ft | 489 kts | 132° |
| 2026-04-21 21:35 | 23.23601 | -103.19503 | 34996 ft | 489 kts | 132° |
| 2026-04-21 21:35 | 23.19515 | -103.13589 | 34989 ft | 489 kts | 131° |
| 2026-04-21 21:36 | 23.15426 | -103.07685 | 34985 ft | 489 kts | 131° |
| 2026-04-21 21:36 | 23.11333 | -103.01783 | 34988 ft | 489 kts | 131° |
| 2026-04-21 21:37 | 23.07238 | -102.95879 | 35055 ft | 489 kts | 131° |
| 2026-04-21 21:37 | 23.03139 | -102.89983 | 35139 ft | 489 kts | 131° |
| 2026-04-21 21:38 | 22.99041 | -102.84092 | 35226 ft | 489 kts | 131° |
| 2026-04-21 21:38 | 22.94966 | -102.78249 | 35310 ft | 489 kts | 131° |
| 2026-04-21 21:39 | 22.90854 | -102.72378 | 35326 ft | 488 kts | 133° |
| 2026-04-21 21:39 | 22.86021 | -102.67373 | 35326 ft | 475 kts | 150° |
| 2026-04-21 21:40 | 22.80527 | -102.63418 | 35308 ft | 474 kts | 152° |
| 2026-04-21 21:40 | 22.75033 | -102.59459 | 35225 ft | 474 kts | 152° |
| 2026-04-21 21:41 | 22.69540 | -102.55496 | 35145 ft | 475 kts | 151° |
| 2026-04-21 21:41 | 22.64044 | -102.51535 | 35066 ft | 475 kts | 151° |
| 2026-04-21 21:42 | 22.58534 | -102.47579 | 34998 ft | 475 kts | 151° |
| 2026-04-21 21:42 | 22.53019 | -102.43634 | 34995 ft | 476 kts | 151° |
| 2026-04-21 21:43 | 22.47502 | -102.39686 | 34998 ft | 476 kts | 151° |
| 2026-04-21 21:43 | 22.41983 | -102.35728 | 34997 ft | 476 kts | 151° |
| 2026-04-21 21:44 | 22.36461 | -102.31771 | 34987 ft | 476 kts | 151° |
| 2026-04-21 21:44 | 22.30934 | -102.27824 | 34989 ft | 477 kts | 151° |
| 2026-04-21 21:45 | 22.25394 | -102.23876 | 34988 ft | 477 kts | 151° |
| 2026-04-21 21:45 | 22.19892 | -102.19955 | 34990 ft | 477 kts | 151° |
| 2026-04-21 21:46 | 22.14360 | -102.16010 | 34992 ft | 477 kts | 151° |
| 2026-04-21 21:46 | 22.08826 | -102.12070 | 34992 ft | 476 kts | 151° |
| 2026-04-21 21:47 | 22.03298 | -102.08133 | 34996 ft | 476 kts | 151° |
| 2026-04-21 21:47 | 21.97770 | -102.04203 | 34998 ft | 476 kts | 151° |
| 2026-04-21 21:48 | 21.92243 | -102.00275 | 34998 ft | 476 kts | 151° |
| 2026-04-21 21:48 | 21.86714 | -101.96348 | 35002 ft | 476 kts | 151° |
| 2026-04-21 21:49 | 21.81190 | -101.92430 | 35002 ft | 476 kts | 151° |
| 2026-04-21 21:49 | 21.75656 | -101.88521 | 35004 ft | 475 kts | 151° |
| 2026-04-21 21:50 | 21.70126 | -101.84617 | 35011 ft | 475 kts | 151° |
| 2026-04-21 21:50 | 21.64600 | -101.80713 | 35009 ft | 475 kts | 151° |
| 2026-04-21 21:51 | 21.59130 | -101.76811 | 35014 ft | 477 kts | 147° |
| 2026-04-21 21:51 | 21.54401 | -101.71688 | 35018 ft | 486 kts | 128° |
| 2026-04-21 21:52 | 21.50697 | -101.65662 | 35020 ft | 487 kts | 126° |
| 2026-04-21 21:52 | 21.46964 | -101.59598 | 35020 ft | 487 kts | 126° |
| 2026-04-21 21:53 | 21.43222 | -101.53543 | 35019 ft | 487 kts | 126° |
| 2026-04-21 21:53 | 21.39458 | -101.47447 | 35024 ft | 487 kts | 126° |
| 2026-04-21 21:54 | 21.35749 | -101.41433 | 35022 ft | 487 kts | 126° |
| 2026-04-21 21:54 | 21.32010 | -101.35380 | 35035 ft | 487 kts | 126° |
| 2026-04-21 21:55 | 21.28265 | -101.29332 | 35045 ft | 487 kts | 126° |
| 2026-04-21 21:55 | 21.24495 | -101.23249 | 35041 ft | 487 kts | 126° |
| 2026-04-21 21:56 | 21.20776 | -101.17258 | 35019 ft | 486 kts | 126° |
| 2026-04-21 21:56 | 21.17032 | -101.11227 | 35020 ft | 486 kts | 126° |
| 2026-04-21 21:57 | 21.13291 | -101.05205 | 35012 ft | 485 kts | 127° |
| 2026-04-21 21:57 | 21.08914 | -100.99782 | 35013 ft | 480 kts | 136° |
| 2026-04-21 21:58 | 21.04351 | -100.94552 | 35016 ft | 480 kts | 136° |
| 2026-04-21 21:58 | 20.99794 | -100.89335 | 35014 ft | 480 kts | 136° |
| 2026-04-21 21:59 | 20.95237 | -100.84126 | 35013 ft | 479 kts | 136° |
| 2026-04-21 21:59 | 20.90686 | -100.78919 | 35012 ft | 479 kts | 136° |
| 2026-04-21 22:00 | 20.86140 | -100.73727 | 35008 ft | 478 kts | 136° |
| 2026-04-21 22:00 | 20.81587 | -100.68540 | 35006 ft | 478 kts | 136° |
| 2026-04-21 22:01 | 20.77806 | -100.64239 | 35009 ft | 477 kts | 136° |
| 2026-04-21 22:01 | 20.73262 | -100.59065 | 35009 ft | 477 kts | 136° |
| 2026-04-21 22:02 | 20.68724 | -100.53898 | 35031 ft | 477 kts | 136° |
| 2026-04-21 22:02 | 20.64185 | -100.48743 | 35101 ft | 476 kts | 136° |
| 2026-04-21 22:03 | 20.59644 | -100.43597 | 35165 ft | 476 kts | 136° |
| 2026-04-21 22:03 | 20.55110 | -100.38445 | 35208 ft | 476 kts | 136° |
| 2026-04-21 22:04 | 20.50575 | -100.33303 | 35234 ft | 476 kts | 136° |
| 2026-04-21 22:04 | 20.46036 | -100.28167 | 35232 ft | 476 kts | 136° |
| 2026-04-21 22:05 | 20.41497 | -100.23036 | 35200 ft | 475 kts | 136° |
| 2026-04-21 22:05 | 20.36962 | -100.17914 | 35152 ft | 475 kts | 136° |
| 2026-04-21 22:06 | 20.32425 | -100.12788 | 35097 ft | 475 kts | 136° |
| 2026-04-21 22:06 | 20.27892 | -100.07674 | 34885 ft | 474 kts | 136° |
| 2026-04-21 22:06 | 20.25609 | -100.05105 | 33842 ft | 482 kts | 136° |
| 2026-04-21 22:07 | 20.23284 | -100.02491 | 32690 ft | 489 kts | 135° |
| 2026-04-21 22:07 | 20.20935 | -99.99847 | 31612 ft | 493 kts | 135° |
| 2026-04-21 22:07 | 20.18574 | -99.97185 | 30548 ft | 496 kts | 135° |
| 2026-04-21 22:07 | 20.16194 | -99.94503 | 29398 ft | 499 kts | 135° |
| 2026-04-21 22:08 | 20.13816 | -99.91824 | 28439 ft | 496 kts | 134° |
| 2026-04-21 22:08 | 20.11457 | -99.89168 | 27656 ft | 491 kts | 134° |
| 2026-04-21 22:08 | 20.09131 | -99.86548 | 26971 ft | 484 kts | 134° |
| 2026-04-21 22:08 | 20.06823 | -99.83956 | 26261 ft | 479 kts | 134° |
| 2026-04-21 22:09 | 20.04543 | -99.81400 | 25578 ft | 474 kts | 134° |
| 2026-04-21 22:09 | 20.02312 | -99.78902 | 24897 ft | 470 kts | 134° |
| 2026-04-21 22:09 | 20.00074 | -99.76398 | 24227 ft | 466 kts | 134° |
| 2026-04-21 22:09 | 19.97852 | -99.73910 | 23542 ft | 462 kts | 134° |
| 2026-04-21 22:10 | 19.95652 | -99.71443 | 22826 ft | 457 kts | 133° |
| 2026-04-21 22:10 | 19.93481 | -99.69009 | 22203 ft | 450 kts | 133° |
| 2026-04-21 22:10 | 19.91337 | -99.66611 | 21591 ft | 444 kts | 133° |
| 2026-04-21 22:10 | 19.89228 | -99.64246 | 21002 ft | 439 kts | 133° |
| 2026-04-21 22:11 | 19.87141 | -99.61906 | 20427 ft | 434 kts | 133° |
| 2026-04-21 22:11 | 19.85075 | -99.59593 | 19865 ft | 429 kts | 133° |
| 2026-04-21 22:11 | 19.83025 | -99.57304 | 19310 ft | 426 kts | 134° |
| 2026-04-21 22:11 | 19.80988 | -99.55030 | 18746 ft | 423 kts | 134° |
| 2026-04-21 22:12 | 19.78964 | -99.52771 | 18138 ft | 421 kts | 134° |
| 2026-04-21 22:12 | 19.76941 | -99.50512 | 17281 ft | 424 kts | 133° |
| 2026-04-21 22:12 | 19.74932 | -99.48269 | 16891 ft | 414 kts | 133° |
| 2026-04-21 22:12 | 19.72957 | -99.46064 | 16302 ft | 411 kts | 133° |
| 2026-04-21 22:13 | 19.70994 | -99.43873 | 15740 ft | 407 kts | 133° |
| 2026-04-21 22:13 | 19.69052 | -99.41707 | 15177 ft | 403 kts | 133° |
| 2026-04-21 22:13 | 19.67125 | -99.39560 | 14600 ft | 400 kts | 133° |
| 2026-04-21 22:13 | 19.65225 | -99.37441 | 13927 ft | 391 kts | 133° |
| 2026-04-21 22:14 | 19.63364 | -99.35368 | 12979 ft | 382 kts | 133° |
| 2026-04-21 22:14 | 19.61582 | -99.33389 | 12528 ft | 361 kts | 133° |
| 2026-04-21 22:14 | 19.59864 | -99.31482 | 12109 ft | 355 kts | 133° |
| 2026-04-21 22:14 | 19.58171 | -99.29597 | 11681 ft | 347 kts | 133° |
| 2026-04-21 22:15 | 19.56545 | -99.27788 | 11283 ft | 332 kts | 132° |
| 2026-04-21 22:15 | 19.54986 | -99.26057 | 10910 ft | 318 kts | 132° |
| 2026-04-21 22:15 | 19.53445 | -99.24437 | 10554 ft | 306 kts | 139° |
| 2026-04-21 22:15 | 19.51704 | -99.23202 | 10209 ft | 299 kts | 152° |
| 2026-04-21 22:16 | 19.49777 | -99.22345 | 9827 ft | 301 kts | 158° |
| 2026-04-21 22:16 | 19.47822 | -99.21540 | 9450 ft | 300 kts | 158° |
| 2026-04-21 22:16 | 19.45904 | -99.20754 | 9128 ft | 292 kts | 158° |
| 2026-04-21 22:16 | 19.44040 | -99.19993 | 8946 ft | 281 kts | 158° |
| 2026-04-21 22:17 | 19.42283 | -99.19122 | 8893 ft | 290 kts | 143° |
| 2026-04-21 22:17 | 19.40771 | -99.17634 | 9240 ft | 306 kts | 130° |
| 2026-04-21 22:17 | 19.39730 | -99.15682 | 9045 ft | 295 kts | 102° |
| 2026-04-21 22:17 | 19.39638 | -99.13580 | 8832 ft | 287 kts | 74° |
| 2026-04-21 22:18 | 19.40588 | -99.11876 | 9093 ft | 254 kts | 46° |
| 2026-04-21 22:18 | 19.41743 | -99.10537 | 9704 ft | 247 kts | 51° |
| 2026-04-21 22:18 | 19.42711 | -99.09020 | 10745 ft | 256 kts | 59° |
| 2026-04-21 22:18 | 19.43600 | -99.07301 | 11079 ft | 265 kts | 60° |
| 2026-04-21 22:19 | 19.44468 | -99.05647 | 11160 ft | 249 kts | 59° |
| 2026-04-21 22:19 | 19.45268 | -99.04086 | 11494 ft | 241 kts | 60° |
| 2026-04-21 22:19 | 19.46062 | -99.02510 | 11868 ft | 245 kts | 60° |
| 2026-04-21 22:19 | 19.46869 | -99.00910 | 11967 ft | 246 kts | 60° |
| 2026-04-21 22:20 | 19.47526 | -98.99248 | 11979 ft | 246 kts | 78° |
| 2026-04-21 22:20 | 19.47499 | -98.97465 | 11969 ft | 248 kts | 104° |
| 2026-04-21 22:20 | 19.46728 | -98.95831 | 11953 ft | 252 kts | 131° |
| 2026-04-21 22:20 | 19.45363 | -98.94661 | 11947 ft | 254 kts | 146° |
| 2026-04-21 22:21 | 19.43872 | -98.93654 | 11936 ft | 254 kts | 147° |
| 2026-04-21 22:21 | 19.42319 | -98.92768 | 11921 ft | 255 kts | 162° |
| 2026-04-21 22:21 | 19.40544 | -98.92565 | 11885 ft | 256 kts | 188° |
| 2026-04-21 22:21 | 19.38909 | -98.93184 | 11618 ft | 253 kts | 215° |
| 2026-04-21 22:22 | 19.37701 | -98.94501 | 11367 ft | 249 kts | 242° |
| 2026-04-21 22:22 | 19.37150 | -98.96207 | 11123 ft | 244 kts | 266° |
| 2026-04-21 22:22 | 19.37235 | -98.97983 | 10903 ft | 241 kts | 278° |
| 2026-04-21 22:22 | 19.37414 | -98.99747 | 10675 ft | 240 kts | 275° |
| 2026-04-21 22:23 | 19.37312 | -99.01502 | 10447 ft | 238 kts | 262° |
| 2026-04-21 22:23 | 19.36910 | -99.03209 | 10026 ft | 244 kts | 254° |
| 2026-04-21 22:23 | 19.36330 | -99.05023 | 9321 ft | 272 kts | 249° |
| 2026-04-21 22:23 | 19.35500 | -99.06839 | 9029 ft | 275 kts | 239° |
| 2026-04-21 22:24 | 19.34585 | -99.08588 | 8880 ft | 268 kts | 248° |
| 2026-04-21 22:24 | 19.34312 | -99.10469 | 8860 ft | 253 kts | 279° |
| 2026-04-21 22:24 | 19.34924 | -99.12107 | 8943 ft | 230 kts | 311° |
| 2026-04-21 22:24 | 19.36109 | -99.13100 | 8938 ft | 211 kts | 336° |
| 2026-04-21 22:25 | 19.37457 | -99.13514 | 8839 ft | 191 kts | 358° |
| 2026-04-21 22:25 | 19.38695 | -99.13408 | 8786 ft | 172 kts | 17° |
| 2026-04-21 22:25 | 19.39754 | -99.12944 | 8784 ft | 166 kts | 32° |
| 2026-04-21 22:25 | 19.40639 | -99.12173 | 8432 ft | 159 kts | 50° |
| 2026-04-21 22:26 | 19.41234 | -99.11201 | 8111 ft | 156 kts | 59° |
| 2026-04-21 22:26 | 19.41779 | -99.10212 | 7759 ft | 155 kts | 60° |
| 2026-04-21 22:26 | 19.42328 | -99.09218 | 7566 ft | 157 kts | 59° |
| 2026-04-21 22:26 | 19.42890 | -99.08238 | 7324 ft | 154 kts | 59° |
| 2026-04-21 22:27 | 19.43377 | -99.07372 | 7305 ft | 115 kts | 59° |
| 2026-04-21 22:27 | 19.43618 | -99.06949 | 7302 ft | 89 kts | 59° |